LEGR Airport Information

Runway Information
Runway 09 Length 9514 ft width 148 ft
Elevation 1842 ft Threshold 0 ft Heading 90
Runway 27 Length 9514 ft Width 148 ft
Elevation 1860 ft Threshold 0 ft Heading 270
Airport Frequencies
Type GND Name GND Frequency 121.7 MHZ
Type TWR Name TWR Frequency 118.85 MHZ
Airport Navaids
Type VOR-DME Name Granada Frequency 113400 KHZ
Airport Weather Information & NOTAM
ADDS - METARS form results

(1538 UTC 03 July 2020)
Data provider http://aviationweather.gov/metar/data/
 
METAR text: LEGR 031530Z 29009KT 240V360 9999 FEW070 35/05 Q1018
Conditions at: LEGR (GRANADA AIRPORT , ES) observed 1530 UTC 03 July 2020
Temperature: 35.0°C (95°F)
Dewpoint: 5.0°C (41°F) [RH = 16%]
Pressure (altimeter): 30.06 inches Hg (1018.0 mb)
Winds: from the WNW (290 degrees) at 10 MPH (9 knots; 4.6 m/s)
Visibility: 6 or more miles (10+ km)
Ceiling: at least 12,000 feet AGL
Clouds: few clouds at 7000 feet AGL
Weather: no significant weather observed at this time

METAR text: LEGR 031500Z 30008KT 250V340 9999 FEW070 34/06 Q1018
Conditions at: LEGR (GRANADA AIRPORT , ES) observed 1500 UTC 03 July 2020
Temperature: 34.0°C (93°F)
Dewpoint: 6.0°C (43°F) [RH = 18%]
Pressure (altimeter): 30.06 inches Hg (1018.0 mb)
Winds: from the WNW (300 degrees) at 9 MPH (8 knots; 4.1 m/s)
Visibility: 6 or more miles (10+ km)
Ceiling: at least 12,000 feet AGL
Clouds: few clouds at 7000 feet AGL
Weather: no significant weather observed at this time

Forecast for: LEGR (GRANADA AIRPORT , ES)
Text: TAF LEGR 031400Z 0315/0415 30010KT CAVOK TX37/0415Z TN16/0405Z
Forecast period: 1500 to 2000 UTC 03 July 2020
Forecast type: FROM: standard forecast or significant change
Winds: from the WNW (300 degrees) at 12 MPH (10 knots; 5.1 m/s)
Visibility: 6 or more miles 10+ km)
Ceiling: unknown
Clouds: missing
Weather: no significant weather forecast for this period
Text: BECMG 0320/0322 VRB02KT
Forecast period: 2000 UTC 03 July 2020 to 1500 UTC 04 July 2020
Forecast type: BECOMING: Conditions expected to become as follows by 2200 UTC 03 July 2020
Winds: variable direction winds at 2 MPH (2 knots; 1.0 m/s)
Visibility: 6 or more miles 10+ km)
Ceiling: unknown
Clouds: missing
Weather: no significant weather forecast for this period

Logo Ivao